sensor_id;sensor_type;location;lat;lon;timestamp;pressure;altitude;pressure_sealevel;temperature;humidity
75513;BME280;64090;49.770;18.760;2023-07-30T00:00:40;97096.70;;;19.07;74.87
75513;BME280;64090;49.770;18.760;2023-07-30T00:04:04;97102.02;;;19.13;74.83
75513;BME280;64090;49.770;18.760;2023-07-30T00:07:10;97127.90;;;19.24;74.38
75513;BME280;64090;49.770;18.760;2023-07-30T00:10:14;97119.32;;;19.24;74.31
75513;BME280;64090;49.770;18.760;2023-07-30T00:13:16;97117.20;;;19.27;74.43
75513;BME280;64090;49.770;18.760;2023-07-30T00:16:20;97121.54;;;19.35;74.20
75513;BME280;64090;49.770;18.760;2023-07-30T00:19:23;97122.95;;;19.33;74.22
75513;BME280;64090;49.770;18.760;2023-07-30T00:22:26;97120.67;;;19.33;74.22
75513;BME280;64090;49.770;18.760;2023-07-30T00:25:29;97123.46;;;19.28;74.48
75513;BME280;64090;49.770;18.760;2023-07-30T00:28:32;97118.40;;;19.24;74.68
75513;BME280;64090;49.770;18.760;2023-07-30T00:31:35;97121.70;;;19.20;74.73
75513;BME280;64090;49.770;18.760;2023-07-30T00:34:38;97120.81;;;19.17;74.94
75513;BME280;64090;49.770;18.760;2023-07-30T00:37:41;97118.05;;;19.19;75.11
75513;BME280;64090;49.770;18.760;2023-07-30T00:40:44;97120.83;;;19.26;75.19
75513;BME280;64090;49.770;18.760;2023-07-30T00:43:47;97119.59;;;19.34;75.14
75513;BME280;64090;49.770;18.760;2023-07-30T00:46:50;97125.02;;;19.38;75.13
75513;BME280;64090;49.770;18.760;2023-07-30T00:49:53;97121.15;;;19.36;75.31
75513;BME280;64090;49.770;18.760;2023-07-30T00:52:57;97125.55;;;19.28;75.58
75513;BME280;64090;49.770;18.760;2023-07-30T00:55:59;97126.05;;;19.15;75.66
75513;BME280;64090;49.770;18.760;2023-07-30T00:59:03;97132.02;;;18.99;75.87
75513;BME280;64090;49.770;18.760;2023-07-30T01:02:06;97141.70;;;18.80;76.05
75513;BME280;64090;49.770;18.760;2023-07-30T01:05:09;97138.06;;;18.62;76.38
75513;BME280;64090;49.770;18.760;2023-07-30T01:08:12;97139.05;;;18.45;76.55
75513;BME280;64090;49.770;18.760;2023-07-30T01:11:17;97133.52;;;18.27;76.96
75513;BME280;64090;49.770;18.760;2023-07-30T01:14:21;97121.30;;;18.09;77.22
75513;BME280;64090;49.770;18.760;2023-07-30T01:17:25;97122.31;;;17.93;77.45
75513;BME280;64090;49.770;18.760;2023-07-30T01:20:31;97122.59;;;17.76;77.72
75513;BME280;64090;49.770;18.760;2023-07-30T01:23:34;97131.75;;;17.63;78.16
75513;BME280;64090;49.770;18.760;2023-07-30T01:26:43;97136.66;;;17.51;78.61
75513;BME280;64090;49.770;18.760;2023-07-30T01:29:53;97134.05;;;17.39;78.66
75513;BME280;64090;49.770;18.760;2023-07-30T01:32:57;97132.77;;;17.27;78.95
75513;BME280;64090;49.770;18.760;2023-07-30T01:36:01;97130.46;;;17.15;79.40
75513;BME280;64090;49.770;18.760;2023-07-30T01:39:05;97131.39;;;17.04;79.52
75513;BME280;64090;49.770;18.760;2023-07-30T01:42:12;97135.48;;;16.95;80.01
75513;BME280;64090;49.770;18.760;2023-07-30T01:45:15;97130.27;;;16.85;80.26
75513;BME280;64090;49.770;18.760;2023-07-30T01:48:18;97128.29;;;16.77;80.42
75513;BME280;64090;49.770;18.760;2023-07-30T01:51:21;97131.66;;;16.69;80.56
75513;BME280;64090;49.770;18.760;2023-07-30T01:54:23;97130.48;;;16.60;80.88
75513;BME280;64090;49.770;18.760;2023-07-30T01:57:27;97129.67;;;16.51;80.97
75513;BME280;64090;49.770;18.760;2023-07-30T02:00:30;97125.80;;;16.41;81.41
75513;BME280;64090;49.770;18.760;2023-07-30T02:03:33;97124.91;;;16.32;81.73
75513;BME280;64090;49.770;18.760;2023-07-30T02:06:36;97119.88;;;16.24;82.47
75513;BME280;64090;49.770;18.760;2023-07-30T02:09:39;97120.48;;;16.15;82.39
75513;BME280;64090;49.770;18.760;2023-07-30T02:12:41;97121.23;;;16.07;82.41
75513;BME280;64090;49.770;18.760;2023-07-30T02:15:44;97122.95;;;16.00;82.74
75513;BME280;64090;49.770;18.760;2023-07-30T02:18:47;97123.55;;;15.94;82.94
75513;BME280;64090;49.770;18.760;2023-07-30T02:21:50;97122.63;;;15.89;83.31
75513;BME280;64090;49.770;18.760;2023-07-30T02:24:53;97130.11;;;15.85;83.56
75513;BME280;64090;49.770;18.760;2023-07-30T02:27:58;97139.44;;;15.80;83.49
75513;BME280;64090;49.770;18.760;2023-07-30T02:31:01;97138.52;;;15.74;83.38
75513;BME280;64090;49.770;18.760;2023-07-30T02:34:04;97142.64;;;15.69;83.74
75513;BME280;64090;49.770;18.760;2023-07-30T02:37:07;97143.97;;;15.64;83.80
75513;BME280;64090;49.770;18.760;2023-07-30T02:40:10;97145.58;;;15.59;84.37
75513;BME280;64090;49.770;18.760;2023-07-30T02:43:13;97143.38;;;15.54;84.27
75513;BME280;64090;49.770;18.760;2023-07-30T02:46:16;97139.00;;;15.50;84.33
75513;BME280;64090;49.770;18.760;2023-07-30T02:49:19;97138.48;;;15.47;84.53
75513;BME280;64090;49.770;18.760;2023-07-30T02:52:22;97138.45;;;15.44;84.81
75513;BME280;64090;49.770;18.760;2023-07-30T02:55:25;97146.56;;;15.41;84.81
75513;BME280;64090;49.770;18.760;2023-07-30T02:58:28;97149.45;;;15.42;84.97
75513;BME280;64090;49.770;18.760;2023-07-30T03:01:31;97151.09;;;15.49;84.81
75513;BME280;64090;49.770;18.760;2023-07-30T03:04:35;97156.71;;;15.57;85.11
75513;BME280;64090;49.770;18.760;2023-07-30T03:07:38;97160.13;;;15.70;85.16
75513;BME280;64090;49.770;18.760;2023-07-30T03:10:41;97161.31;;;15.80;85.22
75513;BME280;64090;49.770;18.760;2023-07-30T03:13:44;97161.03;;;15.89;84.90
75513;BME280;64090;49.770;18.760;2023-07-30T03:16:48;97162.11;;;15.95;85.03
75513;BME280;64090;49.770;18.760;2023-07-30T03:19:51;97162.94;;;15.98;84.72
75513;BME280;64090;49.770;18.760;2023-07-30T03:22:54;97165.65;;;16.02;84.65
75513;BME280;64090;49.770;18.760;2023-07-30T03:25:58;97166.44;;;16.07;84.62
75513;BME280;64090;49.770;18.760;2023-07-30T03:29:02;97166.61;;;16.13;84.70
75513;BME280;64090;49.770;18.760;2023-07-30T03:32:06;97162.17;;;16.16;85.05
75513;BME280;64090;49.770;18.760;2023-07-30T03:35:12;97166.35;;;16.20;84.44
75513;BME280;64090;49.770;18.760;2023-07-30T03:38:15;97165.38;;;16.25;84.23
75513;BME280;64090;49.770;18.760;2023-07-30T03:41:18;97165.16;;;16.31;84.36
75513;BME280;64090;49.770;18.760;2023-07-30T03:44:21;97164.30;;;16.39;84.21
75513;BME280;64090;49.770;18.760;2023-07-30T03:47:24;97164.65;;;16.50;84.03
75513;BME280;64090;49.770;18.760;2023-07-30T03:50:27;97171.19;;;16.65;83.65
75513;BME280;64090;49.770;18.760;2023-07-30T03:53:30;97174.09;;;16.85;83.77
75513;BME280;64090;49.770;18.760;2023-07-30T03:56:33;97178.23;;;17.26;83.47
75513;BME280;64090;49.770;18.760;2023-07-30T03:59:36;97180.58;;;18.27;81.84
75513;BME280;64090;49.770;18.760;2023-07-30T04:02:39;97183.15;;;19.03;79.90
75513;BME280;64090;49.770;18.760;2023-07-30T04:05:42;97186.50;;;19.49;79.16
75513;BME280;64090;49.770;18.760;2023-07-30T04:08:45;97196.09;;;19.98;78.04
75513;BME280;64090;49.770;18.760;2023-07-30T04:11:51;97194.48;;;20.45;77.36
75513;BME280;64090;49.770;18.760;2023-07-30T04:14:55;97192.81;;;21.15;75.43
75513;BME280;64090;49.770;18.760;2023-07-30T04:17:58;97188.83;;;21.45;73.33
75513;BME280;64090;49.770;18.760;2023-07-30T04:21:01;97187.58;;;22.22;72.04
75513;BME280;64090;49.770;18.760;2023-07-30T04:24:04;97188.05;;;22.58;70.26
75513;BME280;64090;49.770;18.760;2023-07-30T04:27:07;97191.11;;;22.60;69.26
75513;BME280;64090;49.770;18.760;2023-07-30T04:30:13;97199.69;;;22.75;68.68
75513;BME280;64090;49.770;18.760;2023-07-30T04:33:16;97202.33;;;22.99;69.97
75513;BME280;64090;49.770;18.760;2023-07-30T04:36:20;97197.27;;;23.20;67.69
75513;BME280;64090;49.770;18.760;2023-07-30T04:39:23;97197.58;;;23.76;66.19
75513;BME280;64090;49.770;18.760;2023-07-30T04:42:26;97201.97;;;24.50;64.36
75513;BME280;64090;49.770;18.760;2023-07-30T04:45:29;97202.66;;;25.22;64.67
75513;BME280;64090;49.770;18.760;2023-07-30T04:48:33;97204.69;;;25.77;59.48
75513;BME280;64090;49.770;18.760;2023-07-30T04:51:35;97208.30;;;25.94;59.11
75513;BME280;64090;49.770;18.760;2023-07-30T04:54:39;97210.27;;;25.89;60.57
75513;BME280;64090;49.770;18.760;2023-07-30T04:57:42;97217.98;;;25.59;59.60
75513;BME280;64090;49.770;18.760;2023-07-30T05:00:45;97221.77;;;25.20;59.88
75513;BME280;64090;49.770;18.760;2023-07-30T05:03:48;97223.31;;;25.06;61.50
75513;BME280;64090;49.770;18.760;2023-07-30T05:06:51;97222.64;;;24.96;60.09
75513;BME280;64090;49.770;18.760;2023-07-30T05:09:54;97216.62;;;24.83;58.11
75513;BME280;64090;49.770;18.760;2023-07-30T05:12:57;97216.55;;;24.77;59.98
75513;BME280;64090;49.770;18.760;2023-07-30T05:16:00;97218.48;;;24.78;60.29
75513;BME280;64090;49.770;18.760;2023-07-30T05:19:03;97220.19;;;24.64;59.36
75513;BME280;64090;49.770;18.760;2023-07-30T05:22:06;97213.98;;;24.60;60.38
75513;BME280;64090;49.770;18.760;2023-07-30T05:25:10;97213.61;;;24.59;60.20
75513;BME280;64090;49.770;18.760;2023-07-30T05:28:13;97215.02;;;24.64;59.59
75513;BME280;64090;49.770;18.760;2023-07-30T05:31:16;97220.45;;;24.53;59.79
75513;BME280;64090;49.770;18.760;2023-07-30T05:34:19;97228.50;;;24.48;59.26
75513;BME280;64090;49.770;18.760;2023-07-30T05:37:22;97230.81;;;24.29;58.53
75513;BME280;64090;49.770;18.760;2023-07-30T05:40:26;97232.48;;;24.25;59.02
75513;BME280;64090;49.770;18.760;2023-07-30T05:43:29;97224.76;;;24.19;58.81
75513;BME280;64090;49.770;18.760;2023-07-30T05:46:32;97225.23;;;24.19;59.02
75513;BME280;64090;49.770;18.760;2023-07-30T05:49:35;97225.45;;;24.29;59.42
75513;BME280;64090;49.770;18.760;2023-07-30T05:52:38;97227.33;;;24.29;58.22
75513;BME280;64090;49.770;18.760;2023-07-30T05:55:41;97225.48;;;24.35;58.77
75513;BME280;64090;49.770;18.760;2023-07-30T05:58:44;97223.33;;;24.49;59.03
75513;BME280;64090;49.770;18.760;2023-07-30T06:01:47;97224.58;;;24.62;58.08
75513;BME280;64090;49.770;18.760;2023-07-30T06:04:50;97219.52;;;24.62;57.05
75513;BME280;64090;49.770;18.760;2023-07-30T06:07:53;97221.11;;;24.71;57.37
75513;BME280;64090;49.770;18.760;2023-07-30T06:11:03;97220.39;;;24.78;55.62
75513;BME280;64090;49.770;18.760;2023-07-30T06:14:06;97222.98;;;25.00;57.26
75513;BME280;64090;49.770;18.760;2023-07-30T06:17:09;97222.70;;;25.13;55.86
75513;BME280;64090;49.770;18.760;2023-07-30T06:20:12;97226.86;;;25.12;55.70
75513;BME280;64090;49.770;18.760;2023-07-30T06:23:15;97224.22;;;25.22;55.02
75513;BME280;64090;49.770;18.760;2023-07-30T06:26:18;97221.34;;;25.12;53.17
75513;BME280;64090;49.770;18.760;2023-07-30T06:29:21;97221.13;;;25.10;54.08
75513;BME280;64090;49.770;18.760;2023-07-30T06:32:24;97219.23;;;25.30;54.39
75513;BME280;64090;49.770;18.760;2023-07-30T06:35:27;97223.00;;;25.47;54.58
75513;BME280;64090;49.770;18.760;2023-07-30T06:38:30;97217.75;;;25.57;53.48
75513;BME280;64090;49.770;18.760;2023-07-30T06:41:33;97221.42;;;25.74;53.56
75513;BME280;64090;49.770;18.760;2023-07-30T06:44:36;97227.24;;;25.82;52.39
75513;BME280;64090;49.770;18.760;2023-07-30T06:47:39;97222.69;;;25.78;51.08
75513;BME280;64090;49.770;18.760;2023-07-30T06:50:42;97224.27;;;25.70;51.85
75513;BME280;64090;49.770;18.760;2023-07-30T06:53:45;97224.41;;;25.74;52.56
75513;BME280;64090;49.770;18.760;2023-07-30T06:56:48;97226.42;;;25.83;53.29
75513;BME280;64090;49.770;18.760;2023-07-30T06:59:51;97227.23;;;25.91;52.49
75513;BME280;64090;49.770;18.760;2023-07-30T07:02:54;97227.66;;;26.00;52.72
75513;BME280;64090;49.770;18.760;2023-07-30T07:05:57;97228.84;;;26.17;52.87
75513;BME280;64090;49.770;18.760;2023-07-30T07:09:00;97228.30;;;26.29;52.38
75513;BME280;64090;49.770;18.760;2023-07-30T07:12:04;97227.54;;;26.42;52.20
75513;BME280;64090;49.770;18.760;2023-07-30T07:15:08;97228.88;;;26.33;51.34
75513;BME280;64090;49.770;18.760;2023-07-30T07:18:11;97223.53;;;26.36;52.32
75513;BME280;64090;49.770;18.760;2023-07-30T07:21:14;97214.66;;;26.49;52.27
75513;BME280;64090;49.770;18.760;2023-07-30T07:24:17;97211.06;;;26.69;51.88
75513;BME280;64090;49.770;18.760;2023-07-30T07:27:20;97210.79;;;26.88;51.00
75513;BME280;64090;49.770;18.760;2023-07-30T07:30:24;97206.61;;;27.08;48.90
75513;BME280;64090;49.770;18.760;2023-07-30T07:33:27;97207.80;;;27.18;48.67
75513;BME280;64090;49.770;18.760;2023-07-30T07:36:30;97208.69;;;27.23;49.88
75513;BME280;64090;49.770;18.760;2023-07-30T07:39:33;97208.22;;;27.29;50.13
75513;BME280;64090;49.770;18.760;2023-07-30T07:42:38;97217.43;;;27.46;50.04
75513;BME280;64090;49.770;18.760;2023-07-30T07:45:41;97221.27;;;27.64;49.35
75513;BME280;64090;49.770;18.760;2023-07-30T07:48:44;97216.52;;;27.74;47.38
75513;BME280;64090;49.770;18.760;2023-07-30T07:51:47;97219.44;;;27.63;46.83
75513;BME280;64090;49.770;18.760;2023-07-30T07:54:50;97213.92;;;27.73;48.50
75513;BME280;64090;49.770;18.760;2023-07-30T07:57:53;97211.96;;;27.79;46.85
75513;BME280;64090;49.770;18.760;2023-07-30T08:00:57;97216.89;;;27.95;47.99
75513;BME280;64090;49.770;18.760;2023-07-30T08:04:00;97215.52;;;28.08;47.72
75513;BME280;64090;49.770;18.760;2023-07-30T08:07:04;97220.02;;;28.22;46.99
75513;BME280;64090;49.770;18.760;2023-07-30T08:10:07;97224.58;;;28.25;46.58
75513;BME280;64090;49.770;18.760;2023-07-30T08:13:10;97224.85;;;28.26;46.80
75513;BME280;64090;49.770;18.760;2023-07-30T08:16:13;97227.46;;;28.39;47.14
75513;BME280;64090;49.770;18.760;2023-07-30T08:19:17;97228.27;;;28.63;46.69
75513;BME280;64090;49.770;18.760;2023-07-30T08:22:20;97234.21;;;28.72;45.83
75513;BME280;64090;49.770;18.760;2023-07-30T08:25:23;97237.92;;;28.77;45.21
75513;BME280;64090;49.770;18.760;2023-07-30T08:28:26;97235.80;;;28.88;45.89
75513;BME280;64090;49.770;18.760;2023-07-30T08:31:29;97233.60;;;28.85;45.39
75513;BME280;64090;49.770;18.760;2023-07-30T08:34:32;97235.85;;;28.98;45.62
75513;BME280;64090;49.770;18.760;2023-07-30T08:37:35;97234.98;;;29.20;44.21
75513;BME280;64090;49.770;18.760;2023-07-30T08:40:38;97232.65;;;29.30;44.74
75513;BME280;64090;49.770;18.760;2023-07-30T08:43:40;97228.55;;;29.38;44.85
75513;BME280;64090;49.770;18.760;2023-07-30T08:46:43;97230.63;;;29.35;43.74
75513;BME280;64090;49.770;18.760;2023-07-30T08:49:46;97239.83;;;29.51;44.13
75513;BME280;64090;49.770;18.760;2023-07-30T08:52:50;97242.27;;;29.67;44.13
75513;BME280;64090;49.770;18.760;2023-07-30T08:55:54;97248.72;;;29.47;43.66
75513;BME280;64090;49.770;18.760;2023-07-30T08:58:58;97246.71;;;29.38;44.04
75513;BME280;64090;49.770;18.760;2023-07-30T09:02:02;97253.18;;;29.19;43.71
75513;BME280;64090;49.770;18.760;2023-07-30T09:05:07;97249.45;;;29.13;43.24
75513;BME280;64090;49.770;18.760;2023-07-30T09:08:11;97254.24;;;28.97;43.06
75513;BME280;64090;49.770;18.760;2023-07-30T09:11:15;97249.00;;;29.01;43.78
75513;BME280;64090;49.770;18.760;2023-07-30T09:14:19;97249.04;;;29.08;42.84
75513;BME280;64090;49.770;18.760;2023-07-30T09:17:23;97245.37;;;28.86;43.05
75513;BME280;64090;49.770;18.760;2023-07-30T09:20:28;97242.20;;;28.81;44.75
75513;BME280;64090;49.770;18.760;2023-07-30T09:23:31;97239.79;;;28.94;44.33
75513;BME280;64090;49.770;18.760;2023-07-30T09:26:42;97234.61;;;29.35;44.16
75513;BME280;64090;49.770;18.760;2023-07-30T09:29:50;97231.87;;;29.59;43.62
75513;BME280;64090;49.770;18.760;2023-07-30T09:32:57;97228.95;;;29.58;42.25
75513;BME280;64090;49.770;18.760;2023-07-30T09:36:04;97230.59;;;29.44;42.28
75513;BME280;64090;49.770;18.760;2023-07-30T09:39:21;97230.08;;;29.30;43.93
75513;BME280;64090;49.770;18.760;2023-07-30T09:42:28;97233.31;;;29.15;43.61
75513;BME280;64090;49.770;18.760;2023-07-30T09:45:35;97231.02;;;29.00;44.23
75513;BME280;64090;49.770;18.760;2023-07-30T09:48:39;97228.70;;;29.09;44.21
75513;BME280;64090;49.770;18.760;2023-07-30T09:51:42;97234.11;;;29.02;44.25
75513;BME280;64090;49.770;18.760;2023-07-30T09:54:48;97234.15;;;29.01;44.51
75513;BME280;64090;49.770;18.760;2023-07-30T09:57:54;97232.73;;;29.07;44.08
75513;BME280;64090;49.770;18.760;2023-07-30T10:00:58;97232.39;;;29.08;44.32
75513;BME280;64090;49.770;18.760;2023-07-30T10:04:08;97223.92;;;29.04;44.03
75513;BME280;64090;49.770;18.760;2023-07-30T10:07:16;97222.98;;;28.94;44.36
75513;BME280;64090;49.770;18.760;2023-07-30T10:10:24;97225.73;;;28.92;44.57
75513;BME280;64090;49.770;18.760;2023-07-30T10:13:29;97219.17;;;28.91;44.30
75513;BME280;64090;49.770;18.760;2023-07-30T10:16:32;97216.48;;;28.92;44.57
75513;BME280;64090;49.770;18.760;2023-07-30T10:19:37;97214.61;;;29.04;44.83
75513;BME280;64090;49.770;18.760;2023-07-30T10:22:40;97215.54;;;28.97;44.08
75513;BME280;64090;49.770;18.760;2023-07-30T10:25:48;97215.00;;;28.83;44.97
75513;BME280;64090;49.770;18.760;2023-07-30T10:29:10;97211.83;;;28.75;44.59
75513;BME280;64090;49.770;18.760;2023-07-30T10:32:13;97212.16;;;28.81;45.21
75513;BME280;64090;49.770;18.760;2023-07-30T10:35:39;97216.77;;;28.94;45.49
75513;BME280;64090;49.770;18.760;2023-07-30T10:38:42;97217.78;;;29.07;45.69
75513;BME280;64090;49.770;18.760;2023-07-30T10:41:49;97212.94;;;29.23;44.00
75513;BME280;64090;49.770;18.760;2023-07-30T10:44:52;97214.55;;;29.25;43.02
75513;BME280;64090;49.770;18.760;2023-07-30T10:48:04;97212.65;;;29.22;42.48
75513;BME280;64090;49.770;18.760;2023-07-30T10:51:12;97204.70;;;28.95;42.67
75513;BME280;64090;49.770;18.760;2023-07-30T10:54:15;97205.10;;;29.00;43.23
75513;BME280;64090;49.770;18.760;2023-07-30T10:57:19;97210.27;;;28.82;43.60
75513;BME280;64090;49.770;18.760;2023-07-30T11:00:22;97212.23;;;28.49;44.10
75513;BME280;64090;49.770;18.760;2023-07-30T11:03:26;97215.63;;;28.35;43.79
75513;BME280;64090;49.770;18.760;2023-07-30T11:06:29;97205.75;;;28.27;44.54
75513;BME280;64090;49.770;18.760;2023-07-30T11:09:33;97211.81;;;28.39;44.86
75513;BME280;64090;49.770;18.760;2023-07-30T11:12:35;97211.20;;;28.35;44.88
75513;BME280;64090;49.770;18.760;2023-07-30T11:15:45;97213.73;;;28.21;45.53
75513;BME280;64090;49.770;18.760;2023-07-30T11:18:48;97209.96;;;28.04;46.01
75513;BME280;64090;49.770;18.760;2023-07-30T11:21:53;97215.38;;;27.71;45.51
75513;BME280;64090;49.770;18.760;2023-07-30T11:25:02;97212.52;;;27.35;46.07
75513;BME280;64090;49.770;18.760;2023-07-30T11:28:11;97212.98;;;27.14;46.83
75513;BME280;64090;49.770;18.760;2023-07-30T11:31:18;97217.14;;;27.11;47.76
75513;BME280;64090;49.770;18.760;2023-07-30T11:34:23;97214.47;;;27.03;47.63
75513;BME280;64090;49.770;18.760;2023-07-30T11:37:26;97207.48;;;26.91;48.39
75513;BME280;64090;49.770;18.760;2023-07-30T11:40:29;97200.80;;;26.79;48.68
75513;BME280;64090;49.770;18.760;2023-07-30T11:43:32;97203.59;;;26.60;48.28
75513;BME280;64090;49.770;18.760;2023-07-30T11:46:35;97208.66;;;26.60;48.92
75513;BME280;64090;49.770;18.760;2023-07-30T11:49:39;97208.61;;;26.42;48.65
75513;BME280;64090;49.770;18.760;2023-07-30T11:52:55;97210.46;;;26.12;49.89
75513;BME280;64090;49.770;18.760;2023-07-30T11:55:59;97209.02;;;26.11;50.52
75513;BME280;64090;49.770;18.760;2023-07-30T11:59:06;97208.25;;;26.13;50.95
75513;BME280;64090;49.770;18.760;2023-07-30T12:02:17;97209.67;;;26.04;50.46
75513;BME280;64090;49.770;18.760;2023-07-30T12:05:31;97205.62;;;26.13;50.85
75513;BME280;64090;49.770;18.760;2023-07-30T12:08:34;97204.25;;;26.21;50.76
75513;BME280;64090;49.770;18.760;2023-07-30T12:12:00;97206.05;;;26.25;51.21
75513;BME280;64090;49.770;18.760;2023-07-30T12:15:10;97208.51;;;26.42;51.24
75513;BME280;64090;49.770;18.760;2023-07-30T12:18:13;97210.30;;;26.58;51.28
75513;BME280;64090;49.770;18.760;2023-07-30T12:21:16;97208.21;;;26.57;51.17
75513;BME280;64090;49.770;18.760;2023-07-30T12:24:19;97206.11;;;26.33;49.93
75513;BME280;64090;49.770;18.760;2023-07-30T12:27:23;97202.67;;;26.12;50.58
75513;BME280;64090;49.770;18.760;2023-07-30T12:30:26;97196.80;;;26.03;51.29
75513;BME280;64090;49.770;18.760;2023-07-30T12:33:30;97193.84;;;26.05;50.95
75513;BME280;64090;49.770;18.760;2023-07-30T12:36:33;97191.85;;;25.91;50.54
75513;BME280;64090;49.770;18.760;2023-07-30T12:39:36;97189.16;;;25.75;51.17
75513;BME280;64090;49.770;18.760;2023-07-30T12:42:39;97190.36;;;25.85;50.92
75513;BME280;64090;49.770;18.760;2023-07-30T12:45:41;97190.14;;;25.88;51.21
75513;BME280;64090;49.770;18.760;2023-07-30T12:48:45;97190.19;;;26.01;51.63
75513;BME280;64090;49.770;18.760;2023-07-30T12:51:48;97190.45;;;26.14;50.73
75513;BME280;64090;49.770;18.760;2023-07-30T12:54:51;97189.30;;;26.27;50.66
75513;BME280;64090;49.770;18.760;2023-07-30T12:57:54;97184.62;;;26.42;50.03
75513;BME280;64090;49.770;18.760;2023-07-30T13:00:57;97181.89;;;26.76;50.35
75513;BME280;64090;49.770;18.760;2023-07-30T13:04:00;97177.58;;;27.14;49.95
75513;BME280;64090;49.770;18.760;2023-07-30T13:07:03;97177.02;;;27.29;49.08
75513;BME280;64090;49.770;18.760;2023-07-30T13:10:07;97171.70;;;27.71;49.13
75513;BME280;64090;49.770;18.760;2023-07-30T13:13:11;97162.05;;;28.03;47.93
75513;BME280;64090;49.770;18.760;2023-07-30T13:16:14;97164.03;;;28.05;48.27
75513;BME280;64090;49.770;18.760;2023-07-30T13:19:17;97165.08;;;28.05;48.00
75513;BME280;64090;49.770;18.760;2023-07-30T13:22:20;97162.21;;;28.22;48.31
75513;BME280;64090;49.770;18.760;2023-07-30T13:25:23;97169.40;;;28.50;48.06
75513;BME280;64090;49.770;18.760;2023-07-30T13:28:27;97171.35;;;28.58;46.66
75513;BME280;64090;49.770;18.760;2023-07-30T13:31:30;97166.64;;;28.62;46.56
75513;BME280;64090;49.770;18.760;2023-07-30T13:34:33;97167.28;;;28.69;46.36
75513;BME280;64090;49.770;18.760;2023-07-30T13:37:36;97163.70;;;28.72;45.59
75513;BME280;64090;49.770;18.760;2023-07-30T13:40:39;97168.16;;;28.39;45.37
75513;BME280;64090;49.770;18.760;2023-07-30T13:43:42;97170.02;;;28.16;45.61
75513;BME280;64090;49.770;18.760;2023-07-30T13:46:45;97170.58;;;27.77;45.56
75513;BME280;64090;49.770;18.760;2023-07-30T13:49:48;97173.34;;;27.23;46.95
75513;BME280;64090;49.770;18.760;2023-07-30T13:52:51;97171.31;;;27.01;48.20
75513;BME280;64090;49.770;18.760;2023-07-30T13:55:54;97172.32;;;26.83;48.52
75513;BME280;64090;49.770;18.760;2023-07-30T13:58:57;97166.23;;;26.51;49.08
75513;BME280;64090;49.770;18.760;2023-07-30T14:02:00;97162.37;;;26.20;49.93
75513;BME280;64090;49.770;18.760;2023-07-30T14:05:03;97156.98;;;25.93;50.51
75513;BME280;64090;49.770;18.760;2023-07-30T14:08:06;97159.23;;;25.93;51.78
75513;BME280;64090;49.770;18.760;2023-07-30T14:11:09;97161.67;;;25.82;50.15
75513;BME280;64090;49.770;18.760;2023-07-30T14:14:12;97162.23;;;25.51;49.26
75513;BME280;64090;49.770;18.760;2023-07-30T14:17:15;97169.25;;;25.27;49.64
75513;BME280;64090;49.770;18.760;2023-07-30T14:20:18;97167.30;;;25.11;49.80
75513;BME280;64090;49.770;18.760;2023-07-30T14:23:21;97166.92;;;24.99;50.30
75513;BME280;64090;49.770;18.760;2023-07-30T14:26:24;97166.17;;;24.90;49.87
75513;BME280;64090;49.770;18.760;2023-07-30T14:29:27;97169.54;;;24.92;49.96
75513;BME280;64090;49.770;18.760;2023-07-30T14:32:30;97172.20;;;25.01;50.04
75513;BME280;64090;49.770;18.760;2023-07-30T14:35:33;97174.17;;;25.11;50.98
75513;BME280;64090;49.770;18.760;2023-07-30T14:38:39;97177.24;;;25.19;50.93
75513;BME280;64090;49.770;18.760;2023-07-30T14:41:42;97173.92;;;25.37;51.18
75513;BME280;64090;49.770;18.760;2023-07-30T14:44:44;97177.30;;;25.41;51.22
75513;BME280;64090;49.770;18.760;2023-07-30T14:47:47;97173.38;;;25.37;51.45
75513;BME280;64090;49.770;18.760;2023-07-30T14:50:51;97176.86;;;25.45;51.56
75513;BME280;64090;49.770;18.760;2023-07-30T14:53:55;97178.23;;;25.41;52.38
75513;BME280;64090;49.770;18.760;2023-07-30T14:56:58;97179.20;;;25.29;53.42
75513;BME280;64090;49.770;18.760;2023-07-30T15:00:01;97174.12;;;25.17;53.85
75513;BME280;64090;49.770;18.760;2023-07-30T15:03:05;97176.58;;;25.16;54.13
75513;BME280;64090;49.770;18.760;2023-07-30T15:06:08;97176.65;;;25.10;54.63
75513;BME280;64090;49.770;18.760;2023-07-30T15:09:11;97172.98;;;25.02;54.74
75513;BME280;64090;49.770;18.760;2023-07-30T15:12:14;97175.48;;;24.79;56.04
75513;BME280;64090;49.770;18.760;2023-07-30T15:15:17;97175.52;;;24.68;56.16
75513;BME280;64090;49.770;18.760;2023-07-30T15:18:20;97180.65;;;24.60;56.81
75513;BME280;64090;49.770;18.760;2023-07-30T15:21:23;97179.51;;;24.71;56.67
75513;BME280;64090;49.770;18.760;2023-07-30T15:24:27;97177.00;;;24.75;56.64
75513;BME280;64090;49.770;18.760;2023-07-30T15:27:30;97178.69;;;24.92;56.31
75513;BME280;64090;49.770;18.760;2023-07-30T15:30:33;97175.38;;;24.94;56.99
75513;BME280;64090;49.770;18.760;2023-07-30T15:33:38;97172.08;;;25.06;56.20
75513;BME280;64090;49.770;18.760;2023-07-30T15:36:42;97171.11;;;25.05;56.33
75513;BME280;64090;49.770;18.760;2023-07-30T15:39:45;97168.52;;;25.00;56.13
75513;BME280;64090;49.770;18.760;2023-07-30T15:42:48;97165.98;;;24.79;55.47
75513;BME280;64090;49.770;18.760;2023-07-30T15:45:51;97158.34;;;24.73;55.21
75513;BME280;64090;49.770;18.760;2023-07-30T15:48:55;97153.84;;;24.64;54.89
75513;BME280;64090;49.770;18.760;2023-07-30T15:51:58;97157.88;;;24.49;55.16
75513;BME280;64090;49.770;18.760;2023-07-30T15:55:01;97157.63;;;24.70;55.32
75513;BME280;64090;49.770;18.760;2023-07-30T15:58:04;97155.45;;;24.84;55.30
75513;BME280;64090;49.770;18.760;2023-07-30T16:01:07;97161.28;;;24.96;55.64